sensor_id;sensor_type;location;lat;lon;timestamp;temperature;humidity
61207;DHT22;47070;49.212;8.084;2022-10-16T00:00:28;18.90;99.90
61207;DHT22;47070;49.212;8.084;2022-10-16T00:04:28;18.90;99.90
61207;DHT22;47070;49.212;8.084;2022-10-16T00:08:29;19.00;99.90
61207;DHT22;47070;49.212;8.084;2022-10-16T00:12:30;18.80;99.90
61207;DHT22;47070;49.212;8.084;2022-10-16T00:16:31;18.70;99.90
61207;DHT22;47070;49.212;8.084;2022-10-16T00:20:34;18.40;99.90
61207;DHT22;47070;49.212;8.084;2022-10-16T00:24:36;18.10;99.90
61207;DHT22;47070;49.212;8.084;2022-10-16T00:28:37;18.10;99.90
61207;DHT22;47070;49.212;8.084;2022-10-16T00:32:37;18.00;99.90
61207;DHT22;47070;49.212;8.084;2022-10-16T00:36:38;17.80;99.90
61207;DHT22;47070;49.212;8.084;2022-10-16T00:40:39;17.70;99.90
61207;DHT22;47070;49.212;8.084;2022-10-16T00:44:44;17.70;99.90
61207;DHT22;47070;49.212;8.084;2022-10-16T00:49:16;17.70;99.90
61207;DHT22;47070;49.212;8.084;2022-10-16T00:53:17;17.70;99.90
61207;DHT22;47070;49.212;8.084;2022-10-16T00:57:18;18.00;99.90
61207;DHT22;47070;49.212;8.084;2022-10-16T01:01:18;17.90;99.90
61207;DHT22;47070;49.212;8.084;2022-10-16T01:05:21;18.00;99.90
61207;DHT22;47070;49.212;8.084;2022-10-16T01:13:35;17.80;99.90
61207;DHT22;47070;49.212;8.084;2022-10-16T01:17:48;17.70;99.90
61207;DHT22;47070;49.212;8.084;2022-10-16T01:21:51;17.60;99.90
61207;DHT22;47070;49.212;8.084;2022-10-16T01:26:23;17.60;99.90
61207;DHT22;47070;49.212;8.084;2022-10-16T01:30:30;17.60;99.90
61207;DHT22;47070;49.212;8.084;2022-10-16T01:34:37;17.50;99.90
61207;DHT22;47070;49.212;8.084;2022-10-16T01:38:40;17.50;99.90
61207;DHT22;47070;49.212;8.084;2022-10-16T01:42:45;17.50;99.90
61207;DHT22;47070;49.212;8.084;2022-10-16T01:46:48;17.50;99.90
61207;DHT22;47070;49.212;8.084;2022-10-16T01:51:03;17.40;99.90
61207;DHT22;47070;49.212;8.084;2022-10-16T01:55:05;17.40;99.90
61207;DHT22;47070;49.212;8.084;2022-10-16T01:59:12;17.40;99.90
61207;DHT22;47070;49.212;8.084;2022-10-16T02:03:17;17.40;99.90
61207;DHT22;47070;49.212;8.084;2022-10-16T02:07:18;17.30;99.90
61207;DHT22;47070;49.212;8.084;2022-10-16T02:11:18;17.30;99.90
61207;DHT22;47070;49.212;8.084;2022-10-16T02:15:19;17.20;99.90
61207;DHT22;47070;49.212;8.084;2022-10-16T02:19:20;17.30;99.90
61207;DHT22;47070;49.212;8.084;2022-10-16T02:23:37;17.30;99.90
61207;DHT22;47070;49.212;8.084;2022-10-16T02:28:16;17.30;99.90
61207;DHT22;47070;49.212;8.084;2022-10-16T02:32:21;17.20;99.90
61207;DHT22;47070;49.212;8.084;2022-10-16T02:36:25;17.30;99.90
61207;DHT22;47070;49.212;8.084;2022-10-16T02:40:26;17.30;99.90
61207;DHT22;47070;49.212;8.084;2022-10-16T02:44:27;17.40;99.90
61207;DHT22;47070;49.212;8.084;2022-10-16T02:48:28;17.50;99.90
61207;DHT22;47070;49.212;8.084;2022-10-16T02:52:28;17.50;99.90
61207;DHT22;47070;49.212;8.084;2022-10-16T02:56:29;17.40;99.90
61207;DHT22;47070;49.212;8.084;2022-10-16T03:00:30;17.40;99.90
61207;DHT22;47070;49.212;8.084;2022-10-16T03:04:30;17.40;99.90
61207;DHT22;47070;49.212;8.084;2022-10-16T03:08:31;17.40;99.90
61207;DHT22;47070;49.212;8.084;2022-10-16T03:12:32;17.50;99.90
61207;DHT22;47070;49.212;8.084;2022-10-16T03:16:32;17.40;99.90
61207;DHT22;47070;49.212;8.084;2022-10-16T03:20:33;17.40;99.90
61207;DHT22;47070;49.212;8.084;2022-10-16T03:24:33;17.50;99.90
61207;DHT22;47070;49.212;8.084;2022-10-16T03:28:34;17.40;99.90
61207;DHT22;47070;49.212;8.084;2022-10-16T03:32:34;17.40;99.90
61207;DHT22;47070;49.212;8.084;2022-10-16T03:36:35;17.40;99.90
61207;DHT22;47070;49.212;8.084;2022-10-16T03:40:35;17.40;99.90
61207;DHT22;47070;49.212;8.084;2022-10-16T03:44:36;17.40;99.90
61207;DHT22;47070;49.212;8.084;2022-10-16T03:48:36;17.40;99.90
61207;DHT22;47070;49.212;8.084;2022-10-16T03:52:37;17.40;99.90
61207;DHT22;47070;49.212;8.084;2022-10-16T03:56:38;17.30;99.90
61207;DHT22;47070;49.212;8.084;2022-10-16T04:00:42;17.30;99.90
61207;DHT22;47070;49.212;8.084;2022-10-16T04:04:43;17.30;99.90
61207;DHT22;47070;49.212;8.084;2022-10-16T04:08:44;17.40;99.90
61207;DHT22;47070;49.212;8.084;2022-10-16T04:12:45;17.40;99.90
61207;DHT22;47070;49.212;8.084;2022-10-16T04:16:45;17.40;99.90
61207;DHT22;47070;49.212;8.084;2022-10-16T04:20:46;17.30;99.90
61207;DHT22;47070;49.212;8.084;2022-10-16T04:24:46;17.30;99.90
61207;DHT22;47070;49.212;8.084;2022-10-16T04:28:47;17.20;99.90
61207;DHT22;47070;49.212;8.084;2022-10-16T04:32:51;17.10;99.90
61207;DHT22;47070;49.212;8.084;2022-10-16T04:36:52;17.10;99.90
61207;DHT22;47070;49.212;8.084;2022-10-16T04:40:52;17.10;99.90
61207;DHT22;47070;49.212;8.084;2022-10-16T04:44:53;17.10;99.90
61207;DHT22;47070;49.212;8.084;2022-10-16T04:48:53;17.10;99.90
61207;DHT22;47070;49.212;8.084;2022-10-16T04:52:54;17.20;99.90
61207;DHT22;47070;49.212;8.084;2022-10-16T04:56:54;17.20;99.90
61207;DHT22;47070;49.212;8.084;2022-10-16T05:00:55;17.30;99.90
61207;DHT22;47070;49.212;8.084;2022-10-16T05:04:55;17.40;99.90
61207;DHT22;47070;49.212;8.084;2022-10-16T05:08:56;17.30;99.90
61207;DHT22;47070;49.212;8.084;2022-10-16T05:12:57;17.30;99.90
61207;DHT22;47070;49.212;8.084;2022-10-16T05:16:57;17.30;99.90
61207;DHT22;47070;49.212;8.084;2022-10-16T05:20:59;17.10;99.90
61207;DHT22;47070;49.212;8.084;2022-10-16T05:24:59;17.10;99.90
61207;DHT22;47070;49.212;8.084;2022-10-16T05:29:00;17.10;99.90
61207;DHT22;47070;49.212;8.084;2022-10-16T05:33:00;17.10;99.90
61207;DHT22;47070;49.212;8.084;2022-10-16T05:37:01;17.20;99.90
61207;DHT22;47070;49.212;8.084;2022-10-16T05:41:02;17.20;99.90
61207;DHT22;47070;49.212;8.084;2022-10-16T05:45:04;17.20;99.90
61207;DHT22;47070;49.212;8.084;2022-10-16T05:49:05;17.20;99.90
61207;DHT22;47070;49.212;8.084;2022-10-16T05:53:06;17.00;99.90
61207;DHT22;47070;49.212;8.084;2022-10-16T05:57:06;17.00;99.90
61207;DHT22;47070;49.212;8.084;2022-10-16T06:01:11;17.00;99.90
61207;DHT22;47070;49.212;8.084;2022-10-16T06:05:12;17.10;99.90
61207;DHT22;47070;49.212;8.084;2022-10-16T06:09:12;17.00;99.90
61207;DHT22;47070;49.212;8.084;2022-10-16T06:13:13;17.10;99.90
61207;DHT22;47070;49.212;8.084;2022-10-16T06:17:15;17.20;99.90
61207;DHT22;47070;49.212;8.084;2022-10-16T06:21:23;17.00;99.90
61207;DHT22;47070;49.212;8.084;2022-10-16T06:25:27;17.00;99.90
61207;DHT22;47070;49.212;8.084;2022-10-16T06:29:27;16.90;99.90
61207;DHT22;47070;49.212;8.084;2022-10-16T06:33:28;16.90;99.90
61207;DHT22;47070;49.212;8.084;2022-10-16T06:37:28;17.20;99.90
61207;DHT22;47070;49.212;8.084;2022-10-16T06:41:29;17.20;99.90
61207;DHT22;47070;49.212;8.084;2022-10-16T06:45:29;17.50;99.90
61207;DHT22;47070;49.212;8.084;2022-10-16T06:49:30;17.60;99.90
61207;DHT22;47070;49.212;8.084;2022-10-16T06:53:33;17.40;99.90
61207;DHT22;47070;49.212;8.084;2022-10-16T06:57:33;17.40;99.90
61207;DHT22;47070;49.212;8.084;2022-10-16T07:01:34;17.20;99.90
61207;DHT22;47070;49.212;8.084;2022-10-16T07:05:41;17.30;99.90
61207;DHT22;47070;49.212;8.084;2022-10-16T07:09:42;17.40;99.90
61207;DHT22;47070;49.212;8.084;2022-10-16T07:13:43;17.70;99.90
61207;DHT22;47070;49.212;8.084;2022-10-16T07:17:44;17.80;99.90
61207;DHT22;47070;49.212;8.084;2022-10-16T07:21:45;17.80;99.90
61207;DHT22;47070;49.212;8.084;2022-10-16T07:25:45;17.70;99.90
61207;DHT22;47070;49.212;8.084;2022-10-16T07:29:46;17.70;99.90
61207;DHT22;47070;49.212;8.084;2022-10-16T07:33:47;17.70;99.90
61207;DHT22;47070;49.212;8.084;2022-10-16T07:37:48;17.90;99.90
61207;DHT22;47070;49.212;8.084;2022-10-16T07:41:48;17.90;99.90
61207;DHT22;47070;49.212;8.084;2022-10-16T07:45:49;18.20;99.90
61207;DHT22;47070;49.212;8.084;2022-10-16T07:49:50;18.20;99.90
61207;DHT22;47070;49.212;8.084;2022-10-16T07:53:51;18.20;99.90
61207;DHT22;47070;49.212;8.084;2022-10-16T07:57:52;18.20;99.90
61207;DHT22;47070;49.212;8.084;2022-10-16T08:01:52;18.30;99.90
61207;DHT22;47070;49.212;8.084;2022-10-16T08:05:53;18.30;99.90
61207;DHT22;47070;49.212;8.084;2022-10-16T08:09:53;18.40;99.90
61207;DHT22;47070;49.212;8.084;2022-10-16T08:13:54;18.50;99.90
61207;DHT22;47070;49.212;8.084;2022-10-16T08:18:03;18.40;99.90
61207;DHT22;47070;49.212;8.084;2022-10-16T08:22:03;18.70;99.90
61207;DHT22;47070;49.212;8.084;2022-10-16T08:26:06;19.00;99.90
61207;DHT22;47070;49.212;8.084;2022-10-16T08:30:08;19.20;99.90
61207;DHT22;47070;49.212;8.084;2022-10-16T08:34:08;19.20;99.90
61207;DHT22;47070;49.212;8.084;2022-10-16T08:38:09;19.10;99.90
61207;DHT22;47070;49.212;8.084;2022-10-16T08:51:09;19.10;99.90
61207;DHT22;47070;49.212;8.084;2022-10-16T08:55:33;19.20;99.90
61207;DHT22;47070;49.212;8.084;2022-10-16T08:59:37;19.00;99.90
61207;DHT22;47070;49.212;8.084;2022-10-16T09:03:41;19.10;99.90
61207;DHT22;47070;49.212;8.084;2022-10-16T09:07:54;18.90;99.90
61207;DHT22;47070;49.212;8.084;2022-10-16T09:12:40;19.00;99.90
61207;DHT22;47070;49.212;8.084;2022-10-16T09:16:52;19.50;99.90
61207;DHT22;47070;49.212;8.084;2022-10-16T09:21:14;19.60;99.90
61207;DHT22;47070;49.212;8.084;2022-10-16T09:25:18;20.20;99.90
61207;DHT22;47070;49.212;8.084;2022-10-16T09:29:21;20.40;99.90
61207;DHT22;47070;49.212;8.084;2022-10-16T09:33:29;20.40;99.90
61207;DHT22;47070;49.212;8.084;2022-10-16T09:37:31;20.60;99.90
61207;DHT22;47070;49.212;8.084;2022-10-16T09:41:35;20.60;99.90
61207;DHT22;47070;49.212;8.084;2022-10-16T09:45:36;20.70;99.90
61207;DHT22;47070;49.212;8.084;2022-10-16T09:49:37;20.50;99.90
61207;DHT22;47070;49.212;8.084;2022-10-16T09:53:43;20.90;99.90
61207;DHT22;47070;49.212;8.084;2022-10-16T09:57:51;20.90;99.90
61207;DHT22;47070;49.212;8.084;2022-10-16T10:01:53;21.00;99.90
61207;DHT22;47070;49.212;8.084;2022-10-16T10:05:53;21.10;99.90
61207;DHT22;47070;49.212;8.084;2022-10-16T10:09:56;21.30;99.90
61207;DHT22;47070;49.212;8.084;2022-10-16T10:14:05;21.30;99.90
61207;DHT22;47070;49.212;8.084;2022-10-16T10:18:16;21.50;99.90
61207;DHT22;47070;49.212;8.084;2022-10-16T10:26:31;21.70;99.90
61207;DHT22;47070;49.212;8.084;2022-10-16T10:40:09;21.70;99.90
61207;DHT22;47070;49.212;8.084;2022-10-16T10:43:55;21.70;99.90
61207;DHT22;47070;49.212;8.084;2022-10-16T10:48:22;21.80;99.90
61207;DHT22;47070;49.212;8.084;2022-10-16T10:52:50;21.70;99.90
61207;DHT22;47070;49.212;8.084;2022-10-16T10:57:02;21.50;99.90
61207;DHT22;47070;49.212;8.084;2022-10-16T11:01:12;21.60;99.90
61207;DHT22;47070;49.212;8.084;2022-10-16T11:05:40;21.70;99.90
61207;DHT22;47070;49.212;8.084;2022-10-16T11:09:45;21.80;99.90
61207;DHT22;47070;49.212;8.084;2022-10-16T11:14:03;21.60;99.90
61207;DHT22;47070;49.212;8.084;2022-10-16T11:18:19;21.70;99.90
61207;DHT22;47070;49.212;8.084;2022-10-16T11:22:28;21.80;99.90
61207;DHT22;47070;49.212;8.084;2022-10-16T11:26:34;21.90;99.90
61207;DHT22;47070;49.212;8.084;2022-10-16T11:30:53;21.70;99.90
61207;DHT22;47070;49.212;8.084;2022-10-16T11:35:00;21.70;99.90
61207;DHT22;47070;49.212;8.084;2022-10-16T11:43:39;21.70;99.90
61207;DHT22;47070;49.212;8.084;2022-10-16T11:47:44;21.70;99.90
61207;DHT22;47070;49.212;8.084;2022-10-16T11:52:10;21.70;99.90
61207;DHT22;47070;49.212;8.084;2022-10-16T11:56:17;21.90;99.90
61207;DHT22;47070;49.212;8.084;2022-10-16T12:04:26;21.80;99.90
61207;DHT22;47070;49.212;8.084;2022-10-16T12:08:36;21.90;99.90
61207;DHT22;47070;49.212;8.084;2022-10-16T12:12:38;22.00;99.90
61207;DHT22;47070;49.212;8.084;2022-10-16T12:16:57;22.00;99.90
61207;DHT22;47070;49.212;8.084;2022-10-16T12:21:00;22.00;99.90
61207;DHT22;47070;49.212;8.084;2022-10-16T12:25:34;21.90;99.90
61207;DHT22;47070;49.212;8.084;2022-10-16T12:29:41;21.90;99.90
61207;DHT22;47070;49.212;8.084;2022-10-16T12:33:58;21.90;99.90
61207;DHT22;47070;49.212;8.084;2022-10-16T12:38:08;21.80;99.90
61207;DHT22;47070;49.212;8.084;2022-10-16T12:42:21;21.70;99.90
61207;DHT22;47070;49.212;8.084;2022-10-16T12:46:44;21.60;99.90
61207;DHT22;47070;49.212;8.084;2022-10-16T12:50:44;21.60;99.90
61207;DHT22;47070;49.212;8.084;2022-10-16T12:54:45;21.40;99.90
61207;DHT22;47070;49.212;8.084;2022-10-16T13:24:48;21.20;99.90
61207;DHT22;47070;49.212;8.084;2022-10-16T13:28:50;21.10;99.90
61207;DHT22;47070;49.212;8.084;2022-10-16T13:33:06;20.90;99.90
61207;DHT22;47070;49.212;8.084;2022-10-16T13:37:25;21.00;99.90
61207;DHT22;47070;49.212;8.084;2022-10-16T13:41:27;20.90;99.90
61207;DHT22;47070;49.212;8.084;2022-10-16T13:45:28;20.90;99.90
61207;DHT22;47070;49.212;8.084;2022-10-16T13:49:28;21.00;99.90
61207;DHT22;47070;49.212;8.084;2022-10-16T13:53:34;21.00;99.90
61207;DHT22;47070;49.212;8.084;2022-10-16T13:57:35;20.90;99.90
61207;DHT22;47070;49.212;8.084;2022-10-16T14:01:41;20.70;99.90
61207;DHT22;47070;49.212;8.084;2022-10-16T14:06:19;20.80;99.90
61207;DHT22;47070;49.212;8.084;2022-10-16T14:10:29;20.80;99.90
61207;DHT22;47070;49.212;8.084;2022-10-16T14:14:35;21.00;99.90
61207;DHT22;47070;49.212;8.084;2022-10-16T14:18:40;21.00;99.90
61207;DHT22;47070;49.212;8.084;2022-10-16T14:22:41;21.10;99.90
61207;DHT22;47070;49.212;8.084;2022-10-16T14:26:43;21.20;99.90
61207;DHT22;47070;49.212;8.084;2022-10-16T14:30:58;21.30;99.90
61207;DHT22;47070;49.212;8.084;2022-10-16T14:34:59;21.40;99.90
61207;DHT22;47070;49.212;8.084;2022-10-16T14:43:04;21.40;99.90
61207;DHT22;47070;49.212;8.084;2022-10-16T14:47:13;21.40;99.90
61207;DHT22;47070;49.212;8.084;2022-10-16T14:51:19;21.40;99.90
61207;DHT22;47070;49.212;8.084;2022-10-16T14:55:20;21.40;99.90
61207;DHT22;47070;49.212;8.084;2022-10-16T14:59:34;21.50;99.90
61207;DHT22;47070;49.212;8.084;2022-10-16T15:03:35;21.50;99.90
61207;DHT22;47070;49.212;8.084;2022-10-16T15:07:36;21.50;99.90
61207;DHT22;47070;49.212;8.084;2022-10-16T15:11:36;21.40;99.90
61207;DHT22;47070;49.212;8.084;2022-10-16T15:19:40;21.20;99.90
61207;DHT22;47070;49.212;8.084;2022-10-16T15:23:41;21.20;99.90
61207;DHT22;47070;49.212;8.084;2022-10-16T15:27:41;21.10;99.90
61207;DHT22;47070;49.212;8.084;2022-10-16T15:31:42;21.00;99.90
61207;DHT22;47070;49.212;8.084;2022-10-16T15:35:43;21.00;99.90
61207;DHT22;47070;49.212;8.084;2022-10-16T15:39:46;21.00;99.90
61207;DHT22;47070;49.212;8.084;2022-10-16T15:43:50;21.20;99.90
61207;DHT22;47070;49.212;8.084;2022-10-16T15:47:51;21.20;99.90
61207;DHT22;47070;49.212;8.084;2022-10-16T15:51:51;21.10;99.90
61207;DHT22;47070;49.212;8.084;2022-10-16T15:55:53;20.80;99.90
61207;DHT22;47070;49.212;8.084;2022-10-16T15:59:53;20.50;99.90
61207;DHT22;47070;49.212;8.084;2022-10-16T16:03:54;20.20;99.90
61207;DHT22;47070;49.212;8.084;2022-10-16T16:07:55;20.00;99.90
61207;DHT22;47070;49.212;8.084;2022-10-16T16:11:56;19.90;99.90
61207;DHT22;47070;49.212;8.084;2022-10-16T16:16:00;19.80;99.90
61207;DHT22;47070;49.212;8.084;2022-10-16T16:20:01;19.60;99.90
61207;DHT22;47070;49.212;8.084;2022-10-16T16:24:02;19.30;99.90
61207;DHT22;47070;49.212;8.084;2022-10-16T16:28:08;19.00;99.90
61207;DHT22;47070;49.212;8.084;2022-10-16T16:32:10;18.80;99.90
61207;DHT22;47070;49.212;8.084;2022-10-16T16:36:12;18.60;99.90
61207;DHT22;47070;49.212;8.084;2022-10-16T16:40:13;18.50;99.90
61207;DHT22;47070;49.212;8.084;2022-10-16T16:44:15;18.50;99.90
61207;DHT22;47070;49.212;8.084;2022-10-16T16:48:16;18.20;99.90
61207;DHT22;47070;49.212;8.084;2022-10-16T16:52:16;18.00;99.90
61207;DHT22;47070;49.212;8.084;2022-10-16T16:56:18;17.90;99.90
61207;DHT22;47070;49.212;8.084;2022-10-16T17:00:18;18.00;99.90
61207;DHT22;47070;49.212;8.084;2022-10-16T17:04:19;17.80;99.90
61207;DHT22;47070;49.212;8.084;2022-10-16T17:08:19;17.60;99.90
61207;DHT22;47070;49.212;8.084;2022-10-16T17:12:20;17.60;99.90
61207;DHT22;47070;49.212;8.084;2022-10-16T17:16:22;17.50;99.90
61207;DHT22;47070;49.212;8.084;2022-10-16T17:20:22;17.50;99.90
61207;DHT22;47070;49.212;8.084;2022-10-16T17:24:23;17.30;99.90
61207;DHT22;47070;49.212;8.084;2022-10-16T17:28:24;17.20;99.90
61207;DHT22;47070;49.212;8.084;2022-10-16T17:32:24;17.10;99.90
61207;DHT22;47070;49.212;8.084;2022-10-16T17:36:25;17.20;99.90
61207;DHT22;47070;49.212;8.084;2022-10-16T17:40:28;17.10;99.90
61207;DHT22;47070;49.212;8.084;2022-10-16T17:44:29;16.90;99.90
61207;DHT22;47070;49.212;8.084;2022-10-16T17:48:29;16.90;99.90
61207;DHT22;47070;49.212;8.084;2022-10-16T17:52:30;16.80;99.90
61207;DHT22;47070;49.212;8.084;2022-10-16T17:56:31;16.80;99.90
61207;DHT22;47070;49.212;8.084;2022-10-16T18:00:32;16.90;99.90
61207;DHT22;47070;49.212;8.084;2022-10-16T18:04:32;16.70;99.90
61207;DHT22;47070;49.212;8.084;2022-10-16T18:08:33;16.60;99.90
61207;DHT22;47070;49.212;8.084;2022-10-16T18:12:36;16.70;99.90
61207;DHT22;47070;49.212;8.084;2022-10-16T18:16:37;16.60;99.90
61207;DHT22;47070;49.212;8.084;2022-10-16T18:20:38;16.50;99.90
61207;DHT22;47070;49.212;8.084;2022-10-16T18:24:39;16.40;99.90
61207;DHT22;47070;49.212;8.084;2022-10-16T18:28:40;16.60;99.90
61207;DHT22;47070;49.212;8.084;2022-10-16T18:32:40;16.50;99.90
61207;DHT22;47070;49.212;8.084;2022-10-16T18:36:41;16.50;99.90
61207;DHT22;47070;49.212;8.084;2022-10-16T18:40:45;16.50;99.90
61207;DHT22;47070;49.212;8.084;2022-10-16T18:44:45;16.20;99.90
61207;DHT22;47070;49.212;8.084;2022-10-16T18:48:47;16.40;99.90
61207;DHT22;47070;49.212;8.084;2022-10-16T18:52:48;16.30;99.90
61207;DHT22;47070;49.212;8.084;2022-10-16T18:56:50;16.20;99.90
61207;DHT22;47070;49.212;8.084;2022-10-16T19:00:51;16.30;99.90
61207;DHT22;47070;49.212;8.084;2022-10-16T19:04:51;16.20;99.90
61207;DHT22;47070;49.212;8.084;2022-10-16T19:08:53;16.10;99.90
61207;DHT22;47070;49.212;8.084;2022-10-16T19:12:53;16.20;99.90
61207;DHT22;47070;49.212;8.084;2022-10-16T19:16:54;16.00;99.90
61207;DHT22;47070;49.212;8.084;2022-10-16T19:20:54;16.30;99.90
61207;DHT22;47070;49.212;8.084;2022-10-16T19:24:58;16.20;99.90
61207;DHT22;47070;49.212;8.084;2022-10-16T19:29:01;16.10;99.90
61207;DHT22;47070;49.212;8.084;2022-10-16T19:33:02;16.10;99.90
61207;DHT22;47070;49.212;8.084;2022-10-16T19:37:02;16.10;99.90
61207;DHT22;47070;49.212;8.084;2022-10-16T19:41:07;16.20;99.90
61207;DHT22;47070;49.212;8.084;2022-10-16T19:45:08;16.20;99.90
61207;DHT22;47070;49.212;8.084;2022-10-16T19:49:11;16.10;99.90
61207;DHT22;47070;49.212;8.084;2022-10-16T19:53:12;16.00;99.90
61207;DHT22;47070;49.212;8.084;2022-10-16T19:57:13;16.10;99.90
61207;DHT22;47070;49.212;8.084;2022-10-16T20:01:14;16.00;99.90
61207;DHT22;47070;49.212;8.084;2022-10-16T20:05:14;16.00;99.90
61207;DHT22;47070;49.212;8.084;2022-10-16T20:09:15;15.90;99.90
61207;DHT22;47070;49.212;8.084;2022-10-16T20:13:16;15.80;99.90
61207;DHT22;47070;49.212;8.084;2022-10-16T20:17:16;15.80;99.90
61207;DHT22;47070;49.212;8.084;2022-10-16T20:21:22;15.80;99.90
61207;DHT22;47070;49.212;8.084;2022-10-16T20:25:23;15.70;99.90
61207;DHT22;47070;49.212;8.084;2022-10-16T20:29:23;15.70;99.90
61207;DHT22;47070;49.212;8.084;2022-10-16T20:33:24;15.70;99.90
61207;DHT22;47070;49.212;8.084;2022-10-16T20:37:24;15.70;99.90
61207;DHT22;47070;49.212;8.084;2022-10-16T20:41:25;15.60;99.90
61207;DHT22;47070;49.212;8.084;2022-10-16T20:45:26;15.40;99.90
61207;DHT22;47070;49.212;8.084;2022-10-16T20:49:26;15.50;99.90
61207;DHT22;47070;49.212;8.084;2022-10-16T20:53:28;15.50;99.90
61207;DHT22;47070;49.212;8.084;2022-10-16T20:57:28;15.50;99.90
61207;DHT22;47070;49.212;8.084;2022-10-16T21:01:29;15.40;99.90
61207;DHT22;47070;49.212;8.084;2022-10-16T21:05:31;15.40;99.90
61207;DHT22;47070;49.212;8.084;2022-10-16T21:09:33;15.30;99.90
61207;DHT22;47070;49.212;8.084;2022-10-16T21:13:34;15.40;99.90
61207;DHT22;47070;49.212;8.084;2022-10-16T21:17:34;15.40;99.90
61207;DHT22;47070;49.212;8.084;2022-10-16T21:21:36;15.20;99.90
61207;DHT22;47070;49.212;8.084;2022-10-16T21:25:37;15.30;99.90
61207;DHT22;47070;49.212;8.084;2022-10-16T21:29:37;15.10;99.90
61207;DHT22;47070;49.212;8.084;2022-10-16T21:33:38;15.20;99.90
61207;DHT22;47070;49.212;8.084;2022-10-16T21:37:39;15.00;99.90
61207;DHT22;47070;49.212;8.084;2022-10-16T21:41:40;15.10;99.90
61207;DHT22;47070;49.212;8.084;2022-10-16T21:45:41;14.90;99.90
61207;DHT22;47070;49.212;8.084;2022-10-16T21:49:41;15.00;99.90
61207;DHT22;47070;49.212;8.084;2022-10-16T21:53:42;15.00;99.90
61207;DHT22;47070;49.212;8.084;2022-10-16T21:57:43;14.90;99.90
61207;DHT22;47070;49.212;8.084;2022-10-16T22:01:43;14.90;99.90
61207;DHT22;47070;49.212;8.084;2022-10-16T22:05:44;14.90;99.90
61207;DHT22;47070;49.212;8.084;2022-10-16T22:09:44;14.90;99.90
61207;DHT22;47070;49.212;8.084;2022-10-16T22:13:45;14.90;99.90
61207;DHT22;47070;49.212;8.084;2022-10-16T22:17:46;14.90;99.90
61207;DHT22;47070;49.212;8.084;2022-10-16T22:21:47;14.90;99.90
61207;DHT22;47070;49.212;8.084;2022-10-16T22:25:48;14.90;99.90
61207;DHT22;47070;49.212;8.084;2022-10-16T22:29:52;14.70;99.90
61207;DHT22;47070;49.212;8.084;2022-10-16T22:33:54;14.70;99.90
61207;DHT22;47070;49.212;8.084;2022-10-16T22:37:54;14.70;99.90
61207;DHT22;47070;49.212;8.084;2022-10-16T22:41:55;14.70;99.90
61207;DHT22;47070;49.212;8.084;2022-10-16T22:46:04;14.70;99.90
61207;DHT22;47070;49.212;8.084;2022-10-16T22:50:05;14.60;99.90
61207;DHT22;47070;49.212;8.084;2022-10-16T22:54:05;14.80;99.90
61207;DHT22;47070;49.212;8.084;2022-10-16T22:58:06;14.60;99.90
61207;DHT22;47070;49.212;8.084;2022-10-16T23:02:06;14.50;99.90
61207;DHT22;47070;49.212;8.084;2022-10-16T23:06:07;14.60;99.90
61207;DHT22;47070;49.212;8.084;2022-10-16T23:10:08;14.70;99.90
61207;DHT22;47070;49.212;8.084;2022-10-16T23:14:08;14.60;99.90
61207;DHT22;47070;49.212;8.084;2022-10-16T23:18:09;14.30;99.90
61207;DHT22;47070;49.212;8.084;2022-10-16T23:22:10;14.40;99.90
61207;DHT22;47070;49.212;8.084;2022-10-16T23:26:12;14.50;99.90
61207;DHT22;47070;49.212;8.084;2022-10-16T23:30:13;14.30;99.90
61207;DHT22;47070;49.212;8.084;2022-10-16T23:34:14;14.30;99.90
61207;DHT22;47070;49.212;8.084;2022-10-16T23:38:15;14.40;99.90
61207;DHT22;47070;49.212;8.084;2022-10-16T23:42:16;14.40;99.90
61207;DHT22;47070;49.212;8.084;2022-10-16T23:46:16;14.40;99.90
61207;DHT22;47070;49.212;8.084;2022-10-16T23:50:17;14.40;99.90
61207;DHT22;47070;49.212;8.084;2022-10-16T23:54:18;14.50;99.90
61207;DHT22;47070;49.212;8.084;2022-10-16T23:58:18;14.60;99.90
